Time;durP1;ratioP1;P1;durP2;ratioP2;P2;SDS_P1;SDS_P2;PMS_P1;PMS_P2;Temp;Humidity;BMP_temperature;BMP_pressure;BME280_temperature;BME280_humidity;BME280_pressure;Samples;Min_cycle;Max_cycle;Signal;HPM_P1;HPM_P2
2021/01/16 00:01:34;;;;;;;17.88;8.50;;;3.60;99.90;;;;;;4860355;29;20061;-74
2021/01/16 00:04:00;;;;;;;16.65;8.68;;;3.50;99.90;;;;;;4861513;29;20372;-75
2021/01/16 00:06:29;;;;;;;19.88;9.27;;;3.60;99.90;;;;;;4861583;29;20033;-75
2021/01/16 00:08:56;;;;;;;26.08;8.85;;;3.60;99.90;;;;;;4863225;29;20026;-75
2021/01/16 00:11:22;;;;;;;19.17;9.32;;;3.60;99.90;;;;;;4860083;29;20402;-74
2021/01/16 00:13:47;;;;;;;19.85;9.10;;;3.60;99.90;;;;;;4867795;29;20017;-76
2021/01/16 00:16:13;;;;;;;19.50;8.23;;;3.50;99.90;;;;;;4859997;29;20483;-74
2021/01/16 00:18:39;;;;;;;20.10;9.10;;;3.50;99.90;;;;;;4861172;29;20061;-75
2021/01/16 00:21:04;;;;;;;16.10;8.82;;;3.50;99.90;;;;;;4844127;29;20427;-74
2021/01/16 00:23:30;;;;;;;18.65;8.15;;;3.50;99.90;;;;;;4868460;29;20034;-73
2021/01/16 00:25:57;;;;;;;16.90;9.00;;;3.50;99.90;;;;;;4869698;29;20022;-73
2021/01/16 00:28:25;;;;;;;23.85;9.07;;;3.50;99.90;;;;;;4861112;29;20037;-74
2021/01/16 00:30:51;;;;;;;17.02;8.60;;;3.50;99.90;;;;;;4845141;29;20037;-73
2021/01/16 00:33:22;;;;;;;17.27;9.25;;;3.50;99.90;;;;;;4862561;29;20025;-74
2021/01/16 00:35:49;;;;;;;14.35;8.27;;;3.50;99.90;;;;;;4858305;29;20029;-74
2021/01/16 00:38:15;;;;;;;16.38;7.63;;;3.40;99.90;;;;;;4862800;29;20077;-74
2021/01/16 00:40:41;;;;;;;16.25;8.00;;;3.50;99.90;;;;;;4861356;29;20033;-74
2021/01/16 00:43:12;;;;;;;16.40;8.48;;;3.50;99.90;;;;;;4861165;29;20026;-73
2021/01/16 00:45:38;;;;;;;15.88;8.52;;;3.50;99.90;;;;;;4859951;29;20036;-73
2021/01/16 00:48:18;;;;;;;17.75;8.80;;;3.50;99.90;;;;;;4861390;29;20399;-73
2021/01/16 00:50:44;;;;;;;16.60;8.23;;;3.50;99.90;;;;;;4838714;29;20057;-73
2021/01/16 00:53:10;;;;;;;15.10;8.35;;;3.50;99.90;;;;;;4860449;29;20030;-74
2021/01/16 00:55:36;;;;;;;19.58;8.75;;;3.50;99.90;;;;;;4844689;29;21894;-74
2021/01/16 00:58:13;;;;;;;17.80;9.05;;;3.50;99.90;;;;;;4860315;29;20022;-74
2021/01/16 01:00:42;;;;;;;10.93;7.22;;;3.50;99.90;;;;;;4860640;29;20105;-74
2021/01/16 01:03:09;;;;;;;14.48;8.18;;;3.50;99.90;;;;;;4863247;29;20125;-73
2021/01/16 01:05:35;;;;;;;12.75;7.30;;;3.60;99.90;;;;;;4875545;29;20478;-73
2021/01/16 01:08:01;;;;;;;19.63;8.73;;;3.50;99.90;;;;;;4868046;29;20128;-76
2021/01/16 01:10:33;;;;;;;16.85;8.52;;;3.40;99.90;;;;;;4852055;29;20116;-74
2021/01/16 01:12:59;;;;;;;16.23;8.80;;;3.40;99.90;;;;;;4859750;29;20036;-74
2021/01/16 01:15:24;;;;;;;16.80;7.90;;;3.40;99.90;;;;;;4859578;29;20025;-74
2021/01/16 01:17:55;;;;;;;15.90;8.00;;;3.40;99.90;;;;;;4860625;29;20061;-74
2021/01/16 01:20:22;;;;;;;15.85;7.90;;;3.40;99.90;;;;;;4859981;29;20041;-74
2021/01/16 01:22:50;;;;;;;13.63;7.82;;;3.40;99.90;;;;;;4859623;29;20038;-74
2021/01/16 01:25:16;;;;;;;13.32;7.57;;;3.50;99.90;;;;;;4859634;29;20045;-74
2021/01/16 01:27:43;;;;;;;14.50;7.93;;;3.50;99.90;;;;;;4860190;29;20045;-74
2021/01/16 01:30:09;;;;;;;14.82;8.73;;;3.50;99.90;;;;;;4867899;29;20494;-74
2021/01/16 01:32:35;;;;;;;15.55;8.30;;;3.50;99.90;;;;;;4863412;29;20077;-75
2021/01/16 01:35:02;;;;;;;19.33;8.35;;;3.40;99.90;;;;;;4848123;29;20034;-74
2021/01/16 01:37:28;;;;;;;17.70;7.85;;;3.40;99.90;;;;;;4860339;29;20025;-75
2021/01/16 01:39:54;;;;;;;12.15;7.15;;;3.40;99.90;;;;;;4858512;29;20060;-74
2021/01/16 01:42:20;;;;;;;17.92;8.88;;;3.40;99.90;;;;;;4860211;29;20038;-74
2021/01/16 01:44:47;;;;;;;13.48;7.65;;;3.40;99.90;;;;;;4860638;29;20040;-73
2021/01/16 01:47:14;;;;;;;15.00;8.13;;;3.30;99.90;;;;;;4859665;29;20037;-73
2021/01/16 01:49:42;;;;;;;16.87;8.20;;;3.40;99.90;;;;;;4860254;29;20101;-72
2021/01/16 01:52:13;;;;;;;16.43;8.10;;;3.40;99.90;;;;;;4863452;29;20700;-74
2021/01/16 01:54:38;;;;;;;17.42;8.60;;;3.40;99.90;;;;;;4859140;29;20038;-73
2021/01/16 01:57:09;;;;;;;15.80;8.15;;;3.40;99.90;;;;;;4859962;29;20097;-73
2021/01/16 01:59:36;;;;;;;15.55;7.40;;;3.40;99.90;;;;;;4860494;29;20025;-73
2021/01/16 02:02:04;;;;;;;12.85;7.07;;;3.40;99.90;;;;;;4860197;29;20032;-73
2021/01/16 02:04:32;;;;;;;18.55;8.85;;;3.40;99.90;;;;;;4863749;29;20234;-74
2021/01/16 02:06:58;;;;;;;14.55;7.82;;;3.40;99.90;;;;;;4862960;29;20037;-74
2021/01/16 02:09:25;;;;;;;13.80;8.52;;;3.40;99.90;;;;;;4862364;29;20053;-73
2021/01/16 02:11:53;;;;;;;16.95;7.53;;;3.40;99.90;;;;;;4863584;29;20061;-74
2021/01/16 02:14:24;;;;;;;15.02;7.85;;;3.50;99.90;;;;;;4863321;29;20112;-73
2021/01/16 02:16:51;;;;;;;15.82;7.57;;;3.50;99.90;;;;;;4861608;29;20434;-73
2021/01/16 02:19:44;;;;;;;12.70;6.85;;;3.50;99.90;;;;;;4862538;29;20037;-73
2021/01/16 02:22:12;;;;;;;13.52;7.90;;;3.60;99.90;;;;;;4866556;29;20127;-73
2021/01/16 02:24:50;;;;;;;12.25;7.10;;;3.60;99.90;;;;;;4857672;29;20037;-72
2021/01/16 02:27:54;;;;;;;15.63;6.75;;;3.60;99.90;;;;;;4862197;29;20120;-75
2021/01/16 02:30:20;;;;;;;12.93;7.40;;;3.60;99.90;;;;;;4789213;30;20622;-74
2021/01/16 02:32:48;;;;;;;13.55;8.23;;;3.60;99.90;;;;;;4788448;30;20032;-74
2021/01/16 02:35:16;;;;;;;16.02;7.97;;;3.50;99.90;;;;;;4809368;29;20057;-73
2021/01/16 02:38:12;;;;;;;11.48;7.22;;;3.50;99.90;;;;;;4862025;29;20026;-74
2021/01/16 02:40:46;;;;;;;14.32;7.22;;;3.50;99.90;;;;;;4844175;29;20048;-75
2021/01/16 02:43:33;;;;;;;12.93;6.97;;;3.50;99.90;;;;;;4843681;29;20036;-73
2021/01/16 02:46:38;;;;;;;14.35;7.57;;;3.50;99.90;;;;;;4861545;29;20112;-73
2021/01/16 02:49:39;;;;;;;13.13;7.05;;;3.40;99.90;;;;;;4846459;29;20455;-73
2021/01/16 02:52:14;;;;;;;14.70;7.57;;;3.50;99.90;;;;;;4862434;29;20038;-72
2021/01/16 02:54:41;;;;;;;12.85;7.32;;;3.50;99.90;;;;;;4862971;29;20037;-73
2021/01/16 02:57:09;;;;;;;17.63;8.80;;;3.50;99.90;;;;;;4862949;29;20116;-74
2021/01/16 02:59:40;;;;;;;18.95;7.60;;;3.50;99.90;;;;;;4862273;29;20334;-73
2021/01/16 03:02:08;;;;;;;13.55;7.32;;;3.50;99.90;;;;;;4862749;29;20026;-73
2021/01/16 03:04:35;;;;;;;17.63;7.95;;;3.50;99.90;;;;;;4862796;29;20037;-74
2021/01/16 03:07:02;;;;;;;15.40;7.30;;;3.50;99.90;;;;;;4862975;29;20029;-74
2021/01/16 03:09:29;;;;;;;12.73;7.28;;;3.50;99.90;;;;;;4861821;29;20045;-74
2021/01/16 03:11:56;;;;;;;11.82;6.45;;;3.50;99.90;;;;;;4861663;29;20048;-74
2021/01/16 03:14:24;;;;;;;15.70;7.95;;;3.50;99.90;;;;;;4860469;29;20030;-74
2021/01/16 03:17:16;;;;;;;15.32;8.07;;;3.50;99.90;;;;;;4862027;29;20037;-73
2021/01/16 03:19:44;;;;;;;15.30;7.53;;;3.50;99.90;;;;;;4860170;29;20029;-73
2021/01/16 03:22:21;;;;;;;14.00;7.60;;;3.40;99.90;;;;;;4861528;29;20037;-74
2021/01/16 03:24:49;;;;;;;13.07;5.57;;;3.40;99.90;;;;;;4861402;29;20494;-74
2021/01/16 03:27:15;;;;;;;15.90;7.95;;;3.50;99.90;;;;;;4862219;29;20026;-74
2021/01/16 03:29:41;;;;;;;15.57;7.68;;;3.50;99.90;;;;;;4861202;29;20040;-72
2021/01/16 03:32:08;;;;;;;14.43;7.20;;;3.50;99.90;;;;;;4861353;29;20451;-73
2021/01/16 03:34:34;;;;;;;13.13;6.78;;;3.50;99.90;;;;;;4860998;29;20495;-74
2021/01/16 03:37:00;;;;;;;13.88;7.53;;;3.40;99.90;;;;;;4862159;29;20025;-74
2021/01/16 03:39:26;;;;;;;17.63;8.15;;;3.40;99.90;;;;;;4862517;29;20480;-73
2021/01/16 03:41:52;;;;;;;12.82;6.80;;;3.40;99.90;;;;;;4860780;29;20040;-74
2021/01/16 03:44:18;;;;;;;18.40;7.93;;;3.40;99.90;;;;;;4862329;29;20041;-73
2021/01/16 03:46:43;;;;;;;14.05;7.22;;;3.40;99.90;;;;;;4861162;29;20371;-73
2021/01/16 03:49:10;;;;;;;11.93;7.20;;;3.50;99.90;;;;;;4860585;29;20422;-73
2021/01/16 03:51:36;;;;;;;14.70;7.53;;;3.50;99.90;;;;;;4845470;29;20425;-73
2021/01/16 03:54:04;;;;;;;11.73;7.43;;;3.50;99.90;;;;;;4860277;29;20062;-73
2021/01/16 03:56:30;;;;;;;16.20;7.28;;;3.50;99.90;;;;;;4860728;29;20041;-73
2021/01/16 03:58:56;;;;;;;13.23;7.53;;;3.50;99.90;;;;;;4860680;29;20497;-73
2021/01/16 04:01:22;;;;;;;13.73;7.85;;;3.50;99.90;;;;;;4861747;29;20026;-74
2021/01/16 04:03:48;;;;;;;12.35;6.78;;;3.60;99.90;;;;;;4861458;29;20025;-73
2021/01/16 04:06:17;;;;;;;15.90;8.02;;;3.50;99.90;;;;;;4862617;29;20058;-74
2021/01/16 04:08:44;;;;;;;12.30;7.10;;;3.60;99.90;;;;;;4863059;29;20062;-73
2021/01/16 04:11:10;;;;;;;14.88;7.75;;;3.60;99.90;;;;;;4860965;29;20081;-73
2021/01/16 04:13:36;;;;;;;13.30;7.22;;;3.60;99.90;;;;;;4862088;29;20112;-73
2021/01/16 04:16:02;;;;;;;14.27;7.43;;;3.60;99.90;;;;;;4861326;29;20021;-73
2021/01/16 04:18:27;;;;;;;13.75;7.15;;;3.60;99.90;;;;;;4861853;29;20058;-74
2021/01/16 04:20:54;;;;;;;16.33;7.40;;;3.60;99.90;;;;;;4861845;29;20045;-73
2021/01/16 04:23:20;;;;;;;19.35;7.05;;;3.60;99.90;;;;;;4861541;29;20185;-73
2021/01/16 04:25:46;;;;;;;12.93;6.68;;;3.60;99.90;;;;;;4859360;29;20033;-74
2021/01/16 04:28:11;;;;;;;14.52;7.05;;;3.70;99.90;;;;;;4861748;29;20030;-73
2021/01/16 04:30:37;;;;;;;17.27;7.28;;;3.70;99.90;;;;;;4859999;29;20033;-74
2021/01/16 04:33:03;;;;;;;12.57;7.65;;;3.60;99.90;;;;;;4844787;29;20030;-74
2021/01/16 04:35:29;;;;;;;16.33;6.90;;;3.60;99.90;;;;;;4860149;29;20033;-75
2021/01/16 04:37:55;;;;;;;11.85;6.50;;;3.50;99.90;;;;;;4860334;29;20360;-74
2021/01/16 04:40:20;;;;;;;10.60;6.55;;;3.50;99.90;;;;;;4844477;29;20117;-74
2021/01/16 04:42:47;;;;;;;10.80;6.38;;;3.40;99.90;;;;;;4859941;29;20467;-73
2021/01/16 04:45:16;;;;;;;14.25;6.25;;;3.40;99.90;;;;;;4859965;29;20041;-73
2021/01/16 04:47:45;;;;;;;15.65;7.28;;;3.40;99.90;;;;;;4859212;29;20017;-74
2021/01/16 04:50:13;;;;;;;12.93;6.75;;;3.40;99.90;;;;;;4860784;29;20046;-73
2021/01/16 04:52:40;;;;;;;9.93;6.22;;;3.40;99.90;;;;;;4859992;29;20025;-75
2021/01/16 04:55:08;;;;;;;12.00;6.13;;;3.40;99.90;;;;;;4859246;29;20022;-74
2021/01/16 04:57:37;;;;;;;12.55;6.50;;;3.50;99.90;;;;;;4859558;29;20021;-74
2021/01/16 05:00:12;;;;;;;17.73;6.45;;;3.50;99.90;;;;;;4859847;29;20395;-74
2021/01/16 05:02:39;;;;;;;13.48;6.50;;;3.50;99.90;;;;;;4861182;29;20029;-74
2021/01/16 05:05:07;;;;;;;12.05;6.72;;;3.50;99.90;;;;;;4859272;29;20117;-74
2021/01/16 05:07:33;;;;;;;11.02;6.10;;;3.40;99.90;;;;;;4861072;29;20100;-75
2021/01/16 05:10:01;;;;;;;18.38;7.75;;;3.40;99.90;;;;;;4860186;29;20036;-74
2021/01/16 05:12:27;;;;;;;;;;;3.40;99.90;;;;;;4859972;29;20025;-75
2021/01/16 05:15:08;;;;;;;13.93;7.03;;;3.50;99.90;;;;;;4860323;29;20338;-75
2021/01/16 05:17:40;;;;;;;12.35;6.65;;;3.40;99.90;;;;;;4859557;29;20022;-74
2021/01/16 05:20:08;;;;;;;13.43;6.70;;;3.40;99.90;;;;;;4859403;29;20471;-73
2021/01/16 05:22:34;;;;;;;12.93;7.18;;;3.40;99.90;;;;;;4859386;29;20495;-73
2021/01/16 05:25:06;;;;;;;17.65;6.70;;;3.50;99.90;;;;;;4860348;29;20075;-73
2021/01/16 05:27:37;;;;;;;13.38;6.63;;;3.40;99.90;;;;;;4860825;29;20057;-74
2021/01/16 05:30:05;;;;;;;12.05;6.88;;;3.50;99.90;;;;;;4859162;29;20433;-73
2021/01/16 05:32:31;;;;;;;12.98;7.13;;;3.40;99.90;;;;;;4860465;29;20494;-73
2021/01/16 05:35:14;;;;;;;16.20;7.30;;;3.50;99.90;;;;;;4859223;29;20061;-73
2021/01/16 05:37:42;;;;;;;11.93;7.20;;;3.50;99.90;;;;;;4855446;29;20033;-74
2021/01/16 05:40:09;;;;;;;10.90;6.97;;;3.50;99.90;;;;;;4867793;29;20036;-74
2021/01/16 05:42:37;;;;;;;11.75;6.80;;;3.40;99.90;;;;;;4866158;29;20497;-73
2021/01/16 05:45:04;;;;;;;13.02;7.18;;;3.50;99.90;;;;;;4865848;29;20018;-74
2021/01/16 05:47:31;;;;;;;10.70;6.53;;;3.50;99.90;;;;;;4866715;29;20048;-73
2021/01/16 05:49:59;;;;;;;12.38;6.78;;;3.40;99.90;;;;;;4866095;29;20071;-74
2021/01/16 05:52:26;;;;;;;17.33;6.40;;;3.30;99.90;;;;;;4867130;29;20077;-73
2021/01/16 05:54:56;;;;;;;12.65;6.72;;;3.30;99.90;;;;;;4865292;29;20029;-73
2021/01/16 05:57:24;;;;;;;15.93;6.70;;;3.30;99.90;;;;;;4863350;29;20037;-73
2021/01/16 05:59:59;;;;;;;13.07;7.47;;;3.40;99.90;;;;;;4865644;29;20463;-73
2021/01/16 06:02:32;;;;;;;9.80;5.82;;;3.40;99.90;;;;;;4856132;29;20055;-73
2021/01/16 06:04:58;;;;;;;19.80;7.07;;;3.30;99.90;;;;;;4864954;29;20386;-75
2021/01/16 06:07:26;;;;;;;12.70;6.50;;;3.40;99.90;;;;;;4866689;29;20036;-73
2021/01/16 06:09:53;;;;;;;12.90;6.57;;;3.30;99.90;;;;;;4865883;29;20044;-74
2021/01/16 06:12:21;;;;;;;10.40;6.47;;;3.30;99.90;;;;;;4865641;29;20191;-75
2021/01/16 06:14:48;;;;;;;13.07;6.68;;;3.30;99.90;;;;;;4866219;29;20408;-73
2021/01/16 06:17:18;;;;;;;11.32;5.57;;;3.30;99.90;;;;;;4865879;29;20034;-73
2021/01/16 06:19:48;;;;;;;11.13;5.40;;;3.40;99.90;;;;;;4865089;29;20113;-74
2021/01/16 06:22:16;;;;;;;12.48;5.55;;;3.40;99.90;;;;;;4865109;29;20025;-74
2021/01/16 06:24:48;;;;;;;10.82;5.85;;;3.30;99.90;;;;;;4864976;29;20067;-74
2021/01/16 06:27:25;;;;;;;10.68;5.38;;;3.20;99.90;;;;;;4853544;29;20045;-74
2021/01/16 06:29:59;;;;;;;14.43;6.55;;;3.20;99.90;;;;;;4861568;29;20029;-73
2021/01/16 06:32:26;;;;;;;12.23;6.80;;;3.10;99.90;;;;;;4865157;29;20062;-74
2021/01/16 06:35:09;;;;;;;11.60;5.85;;;3.10;99.90;;;;;;4849287;29;20180;-73
2021/01/16 06:37:45;;;;;;;8.55;5.53;;;3.20;99.90;;;;;;4865547;29;20057;-73
2021/01/16 06:40:13;;;;;;;12.38;6.38;;;3.30;99.90;;;;;;4849239;29;20028;-72
2021/01/16 06:42:39;;;;;;;19.88;7.38;;;3.20;99.90;;;;;;4866225;29;20040;-73
2021/01/16 06:45:08;;;;;;;8.50;5.63;;;3.20;99.90;;;;;;4865808;29;20033;-73
2021/01/16 06:47:35;;;;;;;9.57;5.13;;;3.30;99.90;;;;;;4865992;29;20053;-73
2021/01/16 06:50:06;;;;;;;9.82;5.65;;;3.30;99.90;;;;;;4862556;29;20058;-74
2021/01/16 06:52:34;;;;;;;10.70;6.00;;;3.20;99.90;;;;;;4846625;29;20075;-73
2021/01/16 06:55:03;;;;;;;9.75;6.00;;;3.20;99.90;;;;;;4848135;29;20041;-74
2021/01/16 06:57:29;;;;;;;9.88;6.10;;;3.30;99.90;;;;;;4862324;29;20026;-75
2021/01/16 06:59:58;;;;;;;11.93;5.88;;;3.30;99.90;;;;;;4862682;29;20430;-74
2021/01/16 07:02:30;;;;;;;8.70;5.25;;;3.30;99.90;;;;;;4863571;29;20038;-74
2021/01/16 07:05:01;;;;;;;9.68;6.03;;;3.40;99.90;;;;;;4862727;29;20033;-73
2021/01/16 07:07:35;;;;;;;11.73;5.90;;;3.40;99.90;;;;;;4862020;29;20036;-74
2021/01/16 07:10:37;;;;;;;12.85;6.50;;;3.30;99.90;;;;;;4862971;29;20048;-74
2021/01/16 07:13:05;;;;;;;13.13;7.03;;;3.20;99.90;;;;;;4858521;29;20054;-74
2021/01/16 07:15:30;;;;;;;13.93;6.60;;;3.20;99.90;;;;;;4860876;29;20073;-73
2021/01/16 07:17:59;;;;;;;13.23;6.53;;;3.20;99.90;;;;;;4845519;29;20088;-73
2021/01/16 07:20:26;;;;;;;10.23;6.20;;;3.20;99.90;;;;;;4861984;29;20066;-73
2021/01/16 07:22:52;;;;;;;12.95;6.65;;;3.20;99.90;;;;;;4861105;29;20035;-73
2021/01/16 07:25:20;;;;;;;11.00;6.00;;;3.20;99.90;;;;;;4860863;29;20056;-73
2021/01/16 07:27:47;;;;;;;11.57;6.87;;;3.20;99.90;;;;;;4861266;29;20030;-74
2021/01/16 07:30:14;;;;;;;14.95;6.95;;;3.20;99.90;;;;;;4862496;29;20081;-74
2021/01/16 07:32:45;;;;;;;10.43;5.05;;;3.20;99.90;;;;;;4861453;29;20507;-73
2021/01/16 07:35:20;;;;;;;14.95;7.05;;;3.20;99.90;;;;;;4858296;29;20036;-73
2021/01/16 07:37:47;;;;;;;14.90;7.30;;;3.20;99.90;;;;;;4849827;29;20025;-73
2021/01/16 07:40:16;;;;;;;13.60;6.90;;;3.20;99.90;;;;;;4845605;29;20029;-73
2021/01/16 07:43:09;;;;;;;15.52;6.90;;;3.10;99.90;;;;;;4861097;29;20395;-73
2021/01/16 07:45:39;;;;;;;14.77;7.53;;;3.10;99.90;;;;;;4854327;29;20138;-74
2021/01/16 07:48:06;;;;;;;15.63;7.22;;;3.10;99.90;;;;;;4860934;29;20022;-74
2021/01/16 07:50:38;;;;;;;13.25;7.03;;;3.20;99.90;;;;;;4860431;29;20487;-74
2021/01/16 07:53:08;;;;;;;14.25;7.50;;;3.20;99.90;;;;;;4861088;29;20107;-75
2021/01/16 07:55:37;;;;;;;12.88;7.13;;;3.20;99.90;;;;;;4861769;29;20032;-73
2021/01/16 07:58:40;;;;;;;15.30;7.65;;;3.10;99.90;;;;;;4862469;29;20068;-73
2021/01/16 08:01:13;;;;;;;13.60;6.88;;;3.20;99.90;;;;;;4855211;29;20385;-75
2021/01/16 08:03:38;;;;;;;15.38;7.80;;;3.10;99.90;;;;;;4861918;29;20069;-74
2021/01/16 08:06:24;;;;;;;17.23;7.30;;;3.10;99.90;;;;;;4861806;29;20061;-74
2021/01/16 08:09:05;;;;;;;13.80;7.28;;;3.20;99.90;;;;;;4862539;29;20048;-74
2021/01/16 08:11:33;;;;;;;14.18;7.65;;;3.20;99.90;;;;;;4860922;29;20049;-75
2021/01/16 08:14:08;;;;;;;13.15;5.88;;;3.20;99.90;;;;;;4860891;29;20021;-74
2021/01/16 08:16:34;;;;;;;18.02;8.20;;;3.10;99.90;;;;;;4861219;29;20462;-74
2021/01/16 08:19:27;;;;;;;18.67;8.57;;;3.10;99.90;;;;;;4860539;29;20018;-75
2021/01/16 08:21:56;;;;;;;15.40;7.63;;;3.20;99.90;;;;;;4860505;29;20132;-74
2021/01/16 08:24:27;;;;;;;16.83;9.00;;;3.20;99.90;;;;;;4861765;29;20036;-74
2021/01/16 08:27:01;;;;;;;20.95;8.60;;;3.20;99.90;;;;;;4859863;29;20033;-74
2021/01/16 08:29:28;;;;;;;13.52;8.15;;;3.20;99.90;;;;;;4860352;29;20029;-74
2021/01/16 08:32:12;;;;;;;20.10;8.60;;;3.20;99.90;;;;;;4857169;29;20034;-74
2021/01/16 08:34:57;;;;;;;16.27;7.78;;;3.30;99.90;;;;;;4863225;29;20033;-74
2021/01/16 08:37:36;;;;;;;17.48;8.68;;;3.30;99.90;;;;;;4847204;29;20064;-77
2021/01/16 08:40:10;;;;;;;17.73;8.05;;;3.20;99.90;;;;;;4862162;29;20426;-75
2021/01/16 08:42:51;;;;;;;18.63;8.60;;;3.30;99.90;;;;;;4858922;29;20041;-75
2021/01/16 08:45:19;;;;;;;17.73;9.43;;;3.30;99.90;;;;;;4844694;29;20072;-74
2021/01/16 08:47:56;;;;;;;15.93;7.97;;;3.40;99.90;;;;;;4860041;29;20383;-74
2021/01/16 08:50:26;;;;;;;18.35;8.48;;;3.40;99.90;;;;;;4862002;29;20101;-74
2021/01/16 08:52:52;;;;;;;28.63;9.15;;;3.30;99.90;;;;;;4861037;29;20064;-76
2021/01/16 08:55:25;;;;;;;16.17;8.13;;;3.30;99.90;;;;;;4861590;29;20471;-75
2021/01/16 08:58:04;;;;;;;16.60;8.48;;;3.30;99.90;;;;;;4860743;29;20104;-74
2021/01/16 09:00:32;;;;;;;18.65;8.77;;;3.40;99.90;;;;;;4855898;29;20032;-74
2021/01/16 09:03:06;;;;;;;18.27;7.85;;;3.40;99.90;;;;;;4855656;29;20025;-76
2021/01/16 09:05:34;;;;;;;20.25;8.55;;;3.40;99.90;;;;;;4841605;29;20034;-75
2021/01/16 09:08:01;;;;;;;21.65;9.50;;;3.40;99.90;;;;;;4857754;29;20070;-75
2021/01/16 09:10:28;;;;;;;19.90;9.23;;;3.40;99.90;;;;;;4859368;29;20028;-74
2021/01/16 09:12:54;;;;;;;20.67;9.55;;;3.40;99.90;;;;;;4859415;29;20021;-75
2021/01/16 09:15:35;;;;;;;18.67;9.25;;;3.40;99.90;;;;;;4859924;29;20479;-74
2021/01/16 09:18:12;;;;;;;16.33;8.77;;;3.50;99.90;;;;;;4855896;29;20033;-75
2021/01/16 09:20:46;;;;;;;19.30;8.17;;;3.50;99.90;;;;;;4858574;29;20025;-74
2021/01/16 09:23:37;;;;;;;23.70;9.10;;;3.50;99.90;;;;;;4860730;29;20307;-74
2021/01/16 09:26:03;;;;;;;20.33;9.43;;;3.50;99.90;;;;;;4834030;29;20124;-74
2021/01/16 09:28:50;;;;;;;20.10;8.60;;;3.60;99.90;;;;;;4860137;29;20121;-74
2021/01/16 09:31:39;;;;;;;19.95;10.00;;;3.50;99.90;;;;;;4858416;29;20033;-74
2021/01/16 09:34:17;;;;;;;19.55;9.98;;;3.60;99.90;;;;;;4855372;29;20033;-74
2021/01/16 09:36:56;;;;;;;18.65;9.10;;;3.60;99.90;;;;;;4855949;29;20505;-73
2021/01/16 09:39:28;;;;;;;24.85;10.25;;;3.70;99.90;;;;;;4843001;29;20033;-74
2021/01/16 09:42:02;;;;;;;20.45;9.88;;;3.70;99.90;;;;;;4858720;29;20056;-75
2021/01/16 09:44:39;;;;;;;25.98;9.75;;;3.70;99.90;;;;;;4860923;29;20697;-74
2021/01/16 09:47:25;;;;;;;21.50;10.15;;;3.70;99.90;;;;;;4850025;29;20037;-75
2021/01/16 09:50:05;;;;;;;19.90;9.65;;;3.70;99.90;;;;;;4858601;29;20180;-74
2021/01/16 09:52:33;;;;;;;21.30;9.52;;;3.70;99.90;;;;;;4859825;29;20034;-75
2021/01/16 09:54:59;;;;;;;25.15;10.43;;;3.70;99.90;;;;;;4860253;29;20572;-72
2021/01/16 09:57:35;;;;;;;18.75;9.48;;;3.70;99.90;;;;;;4860324;29;20379;-74
2021/01/16 10:00:11;;;;;;;21.13;10.13;;;3.80;99.90;;;;;;4860143;29;20025;-73
2021/01/16 10:02:45;;;;;;;22.77;8.50;;;3.80;99.90;;;;;;4858550;29;20057;-73
2021/01/16 10:05:33;;;;;;;19.52;9.45;;;3.70;99.90;;;;;;4857684;29;20404;-75
2021/01/16 10:07:59;;;;;;;;;;;3.70;99.90;;;;;;4852603;29;20157;-73
2021/01/16 10:10:26;;;;;;;20.42;8.50;;;3.80;99.90;;;;;;4867798;29;19919;-73
2021/01/16 10:12:59;;;;;;;22.65;10.65;;;3.90;99.90;;;;;;4863872;29;20036;-75
2021/01/16 10:15:28;;;;;;;20.88;9.73;;;3.90;99.90;;;;;;4844289;29;20037;-75
2021/01/16 10:17:55;;;;;;;21.38;10.15;;;3.90;99.90;;;;;;4860129;29;20022;-74
2021/01/16 10:20:30;;;;;;;19.92;10.73;;;3.90;99.90;;;;;;4842563;29;20120;-75
2021/01/16 10:22:56;;;;;;;25.42;10.27;;;3.90;99.90;;;;;;4846561;29;20095;-74
2021/01/16 10:25:35;;;;;;;21.80;10.68;;;3.80;99.90;;;;;;4847180;29;20025;-74
2021/01/16 10:28:02;;;;;;;21.83;9.88;;;3.80;99.90;;;;;;4859542;29;20546;-74
2021/01/16 10:30:32;;;;;;;20.98;10.13;;;3.80;99.90;;;;;;4863234;29;20026;-74
2021/01/16 10:32:59;;;;;;;23.90;9.82;;;3.70;99.90;;;;;;4861307;29;20030;-73
2021/01/16 10:35:29;;;;;;;25.60;10.27;;;3.80;99.90;;;;;;4862634;29;20490;-76
2021/01/16 10:37:59;;;;;;;18.80;9.85;;;3.80;99.90;;;;;;4848356;29;20022;-76
2021/01/16 10:40:26;;;;;;;20.95;8.82;;;3.80;99.90;;;;;;4862373;29;20033;-75
2021/01/16 10:42:54;;;;;;;19.48;8.60;;;3.80;99.90;;;;;;4862378;29;20055;-76
2021/01/16 10:45:22;;;;;;;22.38;9.10;;;3.70;99.90;;;;;;4861727;29;20447;-75
2021/01/16 10:47:49;;;;;;;20.87;9.60;;;3.80;99.90;;;;;;4861229;29;20117;-75
2021/01/16 10:50:17;;;;;;;19.63;8.95;;;3.80;99.90;;;;;;4860200;29;20045;-75
2021/01/16 10:52:43;;;;;;;21.50;9.60;;;3.80;99.90;;;;;;4861471;29;20029;-76
2021/01/16 10:55:11;;;;;;;20.98;8.88;;;3.80;99.90;;;;;;4846807;29;20029;-76
2021/01/16 10:57:47;;;;;;;21.85;9.32;;;3.80;99.90;;;;;;4861565;29;20032;-76
2021/01/16 11:00:15;;;;;;;29.42;10.55;;;3.80;99.90;;;;;;4861758;29;20072;-76
2021/01/16 11:02:42;;;;;;;;;;;3.70;99.90;;;;;;4842513;29;20068;-76
2021/01/16 11:05:20;;;;;;;24.10;10.18;;;3.70;99.90;;;;;;4861245;29;20361;-76
2021/01/16 11:07:48;;;;;;;18.88;8.80;;;3.70;99.90;;;;;;4861871;29;20082;-75
2021/01/16 11:10:39;;;;;;;20.55;9.70;;;3.60;99.90;;;;;;4862888;29;20029;-75
2021/01/16 11:13:27;;;;;;;14.77;8.38;;;3.70;99.90;;;;;;4844984;29;20046;-74
2021/01/16 11:16:00;;;;;;;18.15;8.30;;;3.70;99.90;;;;;;4832359;29;20076;-74
2021/01/16 11:18:31;;;;;;;14.23;7.78;;;3.70;99.90;;;;;;4861912;29;20103;-76
2021/01/16 11:21:02;;;;;;;17.55;8.93;;;3.80;99.90;;;;;;4854283;29;20034;-75
2021/01/16 11:23:46;;;;;;;15.60;8.40;;;3.80;99.90;;;;;;4860969;29;20034;-74
2021/01/16 11:26:13;;;;;;;15.50;8.63;;;3.80;99.90;;;;;;4857508;29;20562;-75
2021/01/16 11:28:52;;;;;;;17.83;8.55;;;3.70;99.90;;;;;;4857630;29;20029;-74
2021/01/16 11:31:26;;;;;;;17.52;8.68;;;3.70;99.90;;;;;;4858813;29;20089;-74
2021/01/16 11:34:07;;;;;;;23.42;8.32;;;3.70;99.90;;;;;;4869236;29;20117;-74
2021/01/16 11:36:35;;;;;;;13.02;7.75;;;3.60;99.90;;;;;;4876034;29;20039;-75
2021/01/16 11:39:00;;;;;;;18.02;7.93;;;3.60;99.90;;;;;;4873612;29;20419;-75
2021/01/16 11:41:52;;;;;;;15.52;7.90;;;3.60;99.90;;;;;;4865886;29;20114;-75
2021/01/16 11:44:19;;;;;;;14.48;7.28;;;3.70;99.90;;;;;;4854660;29;20057;-74
2021/01/16 11:46:49;;;;;;;16.33;6.95;;;3.70;99.90;;;;;;4862931;29;20037;-75
2021/01/16 11:49:14;;;;;;;16.23;7.80;;;3.60;99.90;;;;;;4859627;29;20033;-74
2021/01/16 11:51:40;;;;;;;16.00;6.97;;;3.60;99.90;;;;;;4861404;29;20052;-73
2021/01/16 11:54:06;;;;;;;13.98;7.05;;;3.60;99.90;;;;;;4860237;29;20420;-74
2021/01/16 11:56:36;;;;;;;10.85;6.18;;;3.60;99.90;;;;;;4859985;29;20026;-73
2021/01/16 11:59:02;;;;;;;11.90;6.32;;;3.70;99.90;;;;;;4861556;29;20025;-73
2021/01/16 12:01:30;;;;;;;15.40;7.20;;;3.60;99.90;;;;;;4860522;29;20070;-74
2021/01/16 12:04:03;;;;;;;11.73;5.80;;;3.60;99.90;;;;;;4859791;29;20120;-74
2021/01/16 12:06:31;;;;;;;13.85;5.78;;;3.60;99.90;;;;;;4860774;29;20403;-74
2021/01/16 12:08:58;;;;;;;12.35;6.00;;;3.60;99.90;;;;;;4862262;29;20029;-74
2021/01/16 12:11:25;;;;;;;10.90;5.25;;;3.70;99.90;;;;;;4859688;29;20041;-74
2021/01/16 12:13:51;;;;;;;9.63;4.82;;;3.60;99.90;;;;;;4859794;29;20386;-74
2021/01/16 12:16:18;;;;;;;12.65;5.55;;;3.70;99.90;;;;;;4860456;29;20042;-74
2021/01/16 12:18:44;;;;;;;8.50;4.35;;;3.70;99.90;;;;;;4843622;29;20513;-75
2021/01/16 12:21:11;;;;;;;9.13;4.78;;;3.70;99.90;;;;;;4839462;29;20042;-74
2021/01/16 12:23:46;;;;;;;8.20;4.63;;;3.60;99.90;;;;;;4843234;29;20029;-74
2021/01/16 12:26:15;;;;;;;7.20;4.68;;;3.60;99.90;;;;;;4860217;29;20434;-76
2021/01/16 12:28:48;;;;;;;9.65;5.40;;;3.60;99.90;;;;;;4872548;29;20486;-74
2021/01/16 12:31:22;;;;;;;10.38;4.47;;;3.60;99.90;;;;;;4859423;29;20033;-75
2021/01/16 12:33:48;;;;;;;10.02;4.85;;;3.50;99.90;;;;;;4845414;29;20363;-74
2021/01/16 12:36:15;;;;;;;8.00;4.45;;;3.60;99.90;;;;;;4861613;29;20108;-74
2021/01/16 12:38:41;;;;;;;10.82;5.50;;;3.60;99.90;;;;;;4872858;29;20044;-74
2021/01/16 12:41:06;;;;;;;12.63;5.70;;;3.60;99.90;;;;;;4875800;29;20037;-75
2021/01/16 12:43:33;;;;;;;17.65;5.38;;;3.70;99.90;;;;;;4860132;29;20030;-74
2021/01/16 12:46:08;;;;;;;9.40;5.32;;;3.60;99.90;;;;;;4865906;29;20113;-74
2021/01/16 12:48:35;;;;;;;9.52;5.18;;;3.60;99.90;;;;;;4844024;29;20380;-75
2021/01/16 12:51:05;;;;;;;10.95;5.63;;;3.60;99.90;;;;;;4861056;29;20562;-73
2021/01/16 12:53:31;;;;;;;12.35;5.43;;;3.60;99.90;;;;;;4861165;29;20052;-73
2021/01/16 12:55:56;;;;;;;10.50;5.38;;;3.60;99.90;;;;;;4860193;29;20026;-74
2021/01/16 12:58:22;;;;;;;9.88;5.30;;;3.60;99.90;;;;;;4856834;29;20064;-74
2021/01/16 13:00:48;;;;;;;10.23;4.88;;;3.50;99.90;;;;;;4871025;29;20029;-73
2021/01/16 13:03:14;;;;;;;9.43;4.80;;;3.40;99.90;;;;;;4861167;29;20046;-76
2021/01/16 13:05:41;;;;;;;9.70;5.05;;;3.40;99.90;;;;;;4861138;29;20097;-75